Carmen, Idaho
Current Conditions -  °F | °C
As of 11:17 AM on Wednesday 28 Jan 2015 (Local Time) from KLLJ Reporting Station
Haze Haze  
Wind Chill: 29°   Ceiling: 400
Heat Index: 33°   Visibility: 3mi
Dew Point: 33°   Wind: 5mph
Humidity: 100%   Direction: 180°S
Pressure: 30.32"   Gusts: NA
Location:  45.24°N, 113.89°W
Report Text: KLLJ 281817Z AUTO 18004KT 3SM BR OVC004 01/01 A3032 RMK AO2 T00060006
Loading
Personal Weather Stations






























Interactive Weather Map New forecast layout! Learn more

10-Day Weather Forecast

Advertisements
Track Severe Weather on mobile